Time;durP1;ratioP1;P1;durP2;ratioP2;P2;SDS_P1;SDS_P2;PMS_P1;PMS_P2;Temp;Humidity;BMP_temperature;BMP_pressure;BME280_temperature;BME280_humidity;BME280_pressure;Samples;Min_cycle;Max_cycle;Signal;HPM_P1;HPM_P2
2023/01/17 00:01:53;;;;;;;1999.90;999.90;;;2.90;99.90;;;;;;5014344;28;20204;-67
2023/01/17 00:10:03;;;;;;;1999.90;999.90;;;3.00;99.90;;;;;;4978529;28;20590;-68
2023/01/17 00:12:30;;;;;;;1999.90;999.90;;;3.40;99.90;;;;;;5015368;28;20420;-68
2023/01/17 00:14:57;;;;;;;1999.90;999.90;;;3.10;99.90;;;;;;5015319;28;20446;-69
2023/01/17 00:17:25;;;;;;;1999.90;999.90;;;3.60;99.90;;;;;;5015246;28;20620;-68
2023/01/17 01:35:20;;;;;;;1999.90;999.90;;;3.10;99.90;;;;;;4994098;28;20185;-71
2023/01/17 01:37:46;;;;;;;1999.90;999.90;;;3.10;99.90;;;;;;4994059;28;20437;-71
2023/01/17 01:40:12;;;;;;;1999.90;999.90;;;3.10;99.90;;;;;;4993621;28;20901;-71
2023/01/17 01:42:48;;;;;;;1999.90;999.90;;;3.10;99.90;;;;;;4994112;28;20202;-71
2023/01/17 01:45:20;;;;;;;1999.90;999.90;;;3.10;99.90;;;;;;4994031;28;20933;-71
2023/01/17 01:47:47;;;;;;;1999.90;999.90;;;3.10;99.90;;;;;;4994138;28;20458;-70
2023/01/17 01:50:13;;;;;;;1999.90;999.90;;;3.00;99.90;;;;;;4993803;28;20466;-70
2023/01/17 01:52:44;;;;;;;1999.90;999.90;;;3.00;99.90;;;;;;4993939;28;20174;-71
2023/01/17 01:55:14;;;;;;;1999.90;999.90;;;3.00;99.90;;;;;;4993844;28;20189;-71
2023/01/17 01:57:43;;;;;;;1999.90;999.90;;;2.90;99.90;;;;;;4993757;28;20459;-71
2023/01/17 02:00:15;;;;;;;1999.90;999.90;;;2.90;99.90;;;;;;4993677;28;20401;-71
2023/01/17 02:02:42;;;;;;;1999.90;999.90;;;2.90;99.90;;;;;;4993815;28;20205;-71
2023/01/17 02:05:09;;;;;;;1999.90;999.90;;;2.90;99.90;;;;;;4993655;28;20676;-70
2023/01/17 02:08:04;;;;;;;1999.90;999.90;;;2.90;99.90;;;;;;4993831;28;20259;-70
2023/01/17 02:10:48;;;;;;;1999.90;999.90;;;2.90;99.90;;;;;;4993247;28;20435;-71
2023/01/17 02:13:16;;;;;;;1999.90;999.90;;;2.90;99.90;;;;;;4993398;28;20197;-71
2023/01/17 02:16:08;;;;;;;1999.90;999.90;;;3.00;99.90;;;;;;4993490;28;20678;-71
2023/01/17 02:18:50;;;;;;;1999.90;999.90;;;3.00;99.90;;;;;;4993399;28;20209;-71
2023/01/17 02:21:30;;;;;;;1999.90;999.90;;;3.00;99.90;;;;;;4993446;28;20172;-71
2023/01/17 02:23:56;;;;;;;1999.90;999.90;;;3.00;99.90;;;;;;4993152;28;20591;-71
2023/01/17 02:26:30;;;;;;;1999.90;999.90;;;3.00;99.90;;;;;;4993645;28;20670;-71
2023/01/17 02:29:19;;;;;;;1999.90;999.90;;;3.10;99.90;;;;;;4993057;28;20173;-71
2023/01/17 02:31:47;;;;;;;1999.90;999.90;;;3.10;99.90;;;;;;4993138;28;20164;-71
2023/01/17 02:34:31;;;;;;;1999.90;999.90;;;3.10;99.90;;;;;;4992993;28;20189;-71
2023/01/17 02:37:10;;;;;;;1999.90;999.90;;;3.00;99.90;;;;;;4992992;28;20178;-71
2023/01/17 02:39:42;;;;;;;1999.90;999.90;;;3.00;99.90;;;;;;4992908;28;20427;-70
2023/01/17 02:42:16;;;;;;;1999.90;999.90;;;3.00;99.90;;;;;;4992971;28;20413;-71
2023/01/17 02:44:43;;;;;;;1999.90;999.90;;;3.00;99.90;;;;;;4992846;28;20272;-71
2023/01/17 02:47:24;;;;;;;1999.90;999.90;;;3.00;99.90;;;;;;4992914;28;20180;-71
2023/01/17 02:50:00;;;;;;;1999.90;999.90;;;3.00;99.90;;;;;;4992266;28;20416;-71
2023/01/17 02:53:07;;;;;;;1999.90;999.90;;;2.90;99.90;;;;;;4992749;28;20404;-71
2023/01/17 02:55:36;;;;;;;1999.90;999.90;;;2.90;99.90;;;;;;4975490;28;20189;-71
2023/01/17 02:58:07;;;;;;;1999.90;999.90;;;2.80;97.10;;;;;;4992586;28;20412;-71
2023/01/17 03:00:33;;;;;;;1999.90;999.90;;;2.80;97.00;;;;;;4992600;28;20437;-71
2023/01/17 03:03:23;;;;;;;1999.90;999.90;;;2.80;99.90;;;;;;4992537;28;20225;-71
2023/01/17 03:05:54;;;;;;;1999.90;999.90;;;2.70;92.70;;;;;;4992610;28;20193;-71
2023/01/17 03:08:21;;;;;;;1999.90;999.90;;;2.70;86.20;;;;;;4992644;28;20252;-71
2023/01/17 03:10:46;;;;;;;1999.90;999.90;;;2.70;87.60;;;;;;4992535;28;20655;-71
2023/01/17 03:13:12;;;;;;;1999.90;999.90;;;2.80;78.10;;;;;;4992540;28;20241;-71
2023/01/17 03:15:39;;;;;;;1999.90;999.90;;;2.80;38.40;;;;;;4992554;28;20510;-71
2023/01/17 03:18:11;;;;;;;1999.90;999.90;;;2.80;15.10;;;;;;4992460;28;20173;-71
2023/01/17 03:20:37;;;;;;;1999.90;999.90;;;2.90;1.00;;;;;;4992481;28;20205;-71
2023/01/17 03:23:02;;;;;;;1999.90;999.90;;;2.90;1.00;;;;;;4992295;28;20228;-71
2023/01/17 03:25:28;;;;;;;1999.90;999.90;;;2.90;1.00;;;;;;4992808;28;20178;-72
2023/01/17 03:27:53;;;;;;;1999.90;999.90;;;2.80;1.00;;;;;;4992730;28;20170;-71
2023/01/17 03:30:20;;;;;;;1999.90;999.90;;;2.90;1.00;;;;;;4992217;28;20181;-72
2023/01/17 03:32:46;;;;;;;1999.90;999.90;;;2.90;1.00;;;;;;4992570;28;20186;-71
2023/01/17 03:35:11;;;;;;;1999.90;999.90;;;2.90;1.00;;;;;;4992237;28;20811;-72
2023/01/17 03:37:37;;;;;;;1999.90;999.90;;;2.80;1.00;;;;;;4992720;28;20304;-72
2023/01/17 03:40:03;;;;;;;1999.90;999.90;;;2.80;1.00;;;;;;4992219;28;20812;-72
2023/01/17 03:42:29;;;;;;;1999.90;999.90;;;2.80;1.00;;;;;;4992675;28;20837;-72
2023/01/17 03:44:54;;;;;;;1999.90;999.90;;;2.80;1.00;;;;;;4992555;28;20201;-72
2023/01/17 03:47:20;;;;;;;1999.90;999.90;;;2.80;1.00;;;;;;4992478;28;20181;-72
2023/01/17 03:49:46;;;;;;;1999.90;999.90;;;2.80;1.00;;;;;;4992283;28;20217;-72
2023/01/17 03:52:11;;;;;;;1999.90;999.90;;;2.90;1.00;;;;;;4992676;28;20257;-72
2023/01/17 03:54:37;;;;;;;1999.90;999.90;;;2.80;1.00;;;;;;4992589;28;20197;-72
2023/01/17 03:57:02;;;;;;;1999.90;999.90;;;2.80;1.00;;;;;;4992451;28;20172;-72
2023/01/17 03:59:28;;;;;;;1999.90;999.90;;;2.80;99.90;;;;;;4992620;28;20201;-71
2023/01/17 04:01:53;;;;;;;1999.90;999.90;;;2.90;99.90;;;;;;4993789;28;20173;-72
2023/01/17 04:04:19;;;;;;;1999.90;999.90;;;2.90;99.90;;;;;;4995869;28;20730;-71
2023/01/17 04:06:46;;;;;;;1999.90;999.90;;;2.80;99.90;;;;;;4996036;28;20177;-72
2023/01/17 04:09:12;;;;;;;1999.90;999.90;;;2.80;99.90;;;;;;4995679;28;20185;-70
2023/01/17 04:11:37;;;;;;;1999.90;999.90;;;2.80;99.90;;;;;;4995664;28;20219;-72
2023/01/17 04:14:03;;;;;;;1999.90;999.90;;;2.80;99.90;;;;;;4995538;28;20193;-71
2023/01/17 04:16:30;;;;;;;1999.90;999.90;;;2.80;99.90;;;;;;4995382;28;20545;-71
2023/01/17 04:18:56;;;;;;;1999.90;999.90;;;2.80;99.90;;;;;;4995284;28;20180;-71
2023/01/17 04:21:22;;;;;;;1999.90;999.90;;;2.80;99.90;;;;;;4995411;28;20405;-71
2023/01/17 04:23:48;;;;;;;1999.90;999.90;;;2.70;99.90;;;;;;4995124;28;20245;-72
2023/01/17 04:26:14;;;;;;;1999.90;999.90;;;2.70;99.90;;;;;;4995288;28;20397;-72
2023/01/17 04:28:40;;;;;;;1999.90;999.90;;;2.70;99.90;;;;;;4995154;28;21016;-72
2023/01/17 04:31:05;;;;;;;1999.90;999.90;;;2.70;99.90;;;;;;4995274;28;20170;-71
2023/01/17 04:33:31;;;;;;;1999.90;999.90;;;2.60;99.90;;;;;;4995112;28;20194;-71
2023/01/17 04:35:57;;;;;;;1999.90;999.90;;;2.60;99.90;;;;;;4995151;28;20173;-71
2023/01/17 04:38:22;;;;;;;1999.90;999.90;;;2.50;99.90;;;;;;4995140;28;20201;-72
2023/01/17 04:40:49;;;;;;;1999.90;999.90;;;2.50;99.90;;;;;;4994984;28;20252;-72
2023/01/17 04:43:16;;;;;;;1999.90;999.90;;;2.50;99.90;;;;;;4994903;28;20711;-72
2023/01/17 04:45:41;;;;;;;1999.90;999.90;;;2.50;99.90;;;;;;4994896;28;20276;-72
2023/01/17 04:48:07;;;;;;;1999.90;999.90;;;2.40;99.90;;;;;;4994918;28;20249;-71
2023/01/17 04:50:33;;;;;;;1999.90;999.90;;;2.40;99.90;;;;;;4994762;28;20185;-72
2023/01/17 04:52:59;;;;;;;1999.90;999.90;;;2.10;99.90;;;;;;4994886;28;20179;-71
2023/01/17 04:55:25;;;;;;;1999.90;999.90;;;2.40;99.90;;;;;;4994855;28;20205;-71
2023/01/17 04:57:51;;;;;;;1999.90;999.90;;;2.40;99.90;;;;;;4994686;28;20178;-71
2023/01/17 05:00:17;;;;;;;1999.90;999.90;;;2.50;99.90;;;;;;4994558;28;20248;-72
2023/01/17 05:02:43;;;;;;;1999.90;999.90;;;2.50;99.90;;;;;;4994853;28;20532;-72
2023/01/17 05:05:09;;;;;;;1999.90;999.90;;;2.50;99.90;;;;;;4994586;28;20616;-71
2023/01/17 05:07:34;;;;;;;1999.90;999.90;;;2.50;99.90;;;;;;4994724;28;20237;-71
2023/01/17 05:10:00;;;;;;;1999.90;999.90;;;2.60;99.90;;;;;;4994642;28;20664;-71
2023/01/17 05:12:27;;;;;;;1999.90;999.90;;;2.60;99.90;;;;;;4994495;28;20197;-72
2023/01/17 05:14:52;;;;;;;1999.90;999.90;;;2.60;99.90;;;;;;4993752;28;20186;-71
2023/01/17 05:17:18;;;;;;;1999.90;999.90;;;2.60;99.90;;;;;;4994362;28;20710;-72
2023/01/17 05:19:44;;;;;;;1999.90;999.90;;;2.60;99.90;;;;;;4994439;28;20170;-72
2023/01/17 05:22:14;;;;;;;1999.90;999.90;;;2.60;99.90;;;;;;4994518;28;20546;-71
2023/01/17 05:24:43;;;;;;;1999.90;999.90;;;2.50;99.90;;;;;;4994583;28;20216;-72
2023/01/17 05:27:10;;;;;;;1999.90;999.90;;;2.50;99.90;;;;;;4994127;28;20188;-71
2023/01/17 05:29:36;;;;;;;1999.90;999.90;;;2.60;99.90;;;;;;4994381;28;20180;-72
2023/01/17 05:32:02;;;;;;;1999.90;999.90;;;2.50;99.90;;;;;;4994328;28;20842;-72
2023/01/17 05:34:28;;;;;;;1999.90;999.90;;;2.50;99.90;;;;;;4994048;28;20524;-72
2023/01/17 05:36:54;;;;;;;1999.90;999.90;;;2.50;99.90;;;;;;4993985;28;20408;-72
2023/01/17 05:39:19;;;;;;;1999.90;999.90;;;2.60;99.90;;;;;;4993839;28;20548;-72
2023/01/17 05:41:45;;;;;;;1999.90;999.90;;;2.60;99.90;;;;;;4993958;28;20201;-72
2023/01/17 05:44:11;;;;;;;1999.90;999.90;;;2.60;99.90;;;;;;4993752;28;20216;-72
2023/01/17 05:46:36;;;;;;;1999.90;999.90;;;2.60;99.90;;;;;;4993900;28;20174;-71
2023/01/17 05:49:02;;;;;;;1999.90;999.90;;;2.60;99.90;;;;;;4993652;28;20192;-72
2023/01/17 05:51:28;;;;;;;1999.90;999.90;;;2.60;99.90;;;;;;4993836;28;20169;-72
2023/01/17 05:53:53;;;;;;;1999.90;999.90;;;2.60;36.80;;;;;;4993683;28;20186;-71
2023/01/17 05:56:19;;;;;;;1999.90;999.90;;;2.60;47.60;;;;;;4993487;28;20448;-72
2023/01/17 05:58:45;;;;;;;1999.90;999.90;;;2.50;57.20;;;;;;4993475;28;20177;-71
2023/01/17 06:01:10;;;;;;;1999.90;999.90;;;2.60;1.00;;;;;;4993636;28;20236;-72
2023/01/17 06:03:36;;;;;;;1999.90;999.90;;;2.50;1.00;;;;;;4993675;28;20288;-72
2023/01/17 06:06:02;;;;;;;1999.90;999.90;;;2.50;1.00;;;;;;4993433;28;20162;-72
2023/01/17 06:08:27;;;;;;;1999.90;999.90;;;2.40;1.00;;;;;;4993402;28;20173;-71
2023/01/17 06:10:53;;;;;;;1999.90;999.90;;;2.30;1.00;;;;;;4993356;28;20170;-71
2023/01/17 06:13:21;;;;;;;1999.90;999.90;;;2.30;92.00;;;;;;4993354;28;20567;-72
2023/01/17 06:15:47;;;;;;;1999.90;999.90;;;2.30;99.90;;;;;;4993198;28;20659;-71
2023/01/17 06:18:15;;;;;;;1999.90;999.90;;;2.30;99.90;;;;;;4993263;28;20213;-71
2023/01/17 06:20:42;;;;;;;1999.90;999.90;;;2.30;99.90;;;;;;4993083;28;20459;-71
2023/01/17 06:23:11;;;;;;;1999.90;999.90;;;2.20;99.90;;;;;;4992932;28;20281;-71
2023/01/17 06:25:44;;;;;;;1999.90;999.90;;;2.30;99.90;;;;;;4992301;28;20170;-71
2023/01/17 06:28:17;;;;;;;1999.90;999.90;;;2.30;99.90;;;;;;4993099;28;20197;-72
2023/01/17 06:30:43;;;;;;;1999.90;999.90;;;2.30;99.90;;;;;;4992892;28;20166;-71
2023/01/17 06:33:09;;;;;;;1999.90;999.90;;;2.20;99.90;;;;;;4993110;28;20191;-72
2023/01/17 06:35:39;;;;;;;1999.90;999.90;;;2.30;99.90;;;;;;4992988;28;20260;-71
2023/01/17 06:38:05;;;;;;;1999.90;999.90;;;2.30;99.90;;;;;;4992781;28;20188;-72
2023/01/17 06:40:32;;;;;;;1999.90;999.90;;;2.40;99.90;;;;;;4992895;28;20188;-72
2023/01/17 06:43:02;;;;;;;1999.90;999.90;;;2.50;99.90;;;;;;4992700;28;20193;-72
2023/01/17 06:45:31;;;;;;;1999.90;999.90;;;2.50;99.90;;;;;;4992804;28;20537;-72
2023/01/17 06:47:58;;;;;;;1999.90;999.90;;;2.40;99.90;;;;;;4992793;28;20674;-72
2023/01/17 06:50:24;;;;;;;1999.90;999.90;;;2.40;99.90;;;;;;4992577;28;20173;-72
2023/01/17 06:52:58;;;;;;;1999.90;999.90;;;2.40;99.90;;;;;;4992986;28;20205;-71
2023/01/17 06:55:28;;;;;;;1999.90;999.90;;;2.40;99.90;;;;;;4992661;28;20264;-71
2023/01/17 06:57:57;;;;;;;1999.90;999.90;;;2.40;99.90;;;;;;4992792;28;20308;-71
2023/01/17 07:00:23;;;;;;;1999.90;999.90;;;2.40;99.90;;;;;;4992682;28;20177;-71
2023/01/17 07:02:50;;;;;;;1999.90;999.90;;;2.40;99.90;;;;;;4992944;28;20556;-71
2023/01/17 07:05:16;;;;;;;1999.90;999.90;;;2.50;99.90;;;;;;4992753;28;20468;-72
2023/01/17 07:07:42;;;;;;;1999.90;999.90;;;2.50;99.90;;;;;;4992587;28;20248;-72
2023/01/17 07:10:09;;;;;;;1999.90;999.90;;;2.50;99.90;;;;;;4992873;28;20208;-72
2023/01/17 07:12:35;;;;;;;1999.90;999.90;;;2.50;94.60;;;;;;4992875;28;20204;-72
2023/01/17 07:15:00;;;;;;;1999.90;999.90;;;2.50;7.40;;;;;;4992649;28;20190;-71
2023/01/17 07:17:26;;;;;;;1999.90;999.90;;;2.50;1.00;;;;;;4992849;28;20698;-72
2023/01/17 07:19:51;;;;;;;1999.90;999.90;;;2.10;1.00;;;;;;4992638;28;20182;-72
2023/01/17 07:22:17;;;;;;;1999.90;999.90;;;2.50;1.00;;;;;;4992638;28;20535;-72
2023/01/17 07:24:43;;;;;;;1999.90;999.90;;;2.40;1.00;;;;;;4993357;28;20209;-72
2023/01/17 07:27:08;;;;;;;1999.90;999.90;;;2.40;1.00;;;;;;4992804;28;20170;-72
2023/01/17 07:29:34;;;;;;;1999.90;999.90;;;2.40;1.00;;;;;;4992375;28;20169;-72
2023/01/17 07:31:59;;;;;;;1999.90;999.90;;;2.40;1.70;;;;;;4992348;28;20316;-72
2023/01/17 07:34:25;;;;;;;1999.90;999.90;;;2.30;1.00;;;;;;4992269;28;20201;-73
2023/01/17 07:36:53;;;;;;;1999.90;999.90;;;2.20;63.80;;;;;;4993625;28;20177;-72
2023/01/17 07:39:19;;;;;;;1999.90;999.90;;;2.20;54.20;;;;;;4996117;28;20174;-72
2023/01/17 07:41:45;;;;;;;1999.90;999.90;;;2.20;82.70;;;;;;4996400;28;20196;-72
2023/01/17 07:44:12;;;;;;;1999.90;999.90;;;2.20;1.00;;;;;;4996003;28;20452;-71
2023/01/17 07:46:38;;;;;;;1999.90;999.90;;;2.10;1.00;;;;;;4996033;28;20256;-72
2023/01/17 07:49:04;;;;;;;1999.90;999.90;;;2.10;99.90;;;;;;4995742;28;20177;-72
2023/01/17 07:51:29;;;;;;;1999.90;999.90;;;2.10;99.90;;;;;;4995988;28;20178;-72
2023/01/17 07:53:55;;;;;;;1999.90;999.90;;;2.20;76.60;;;;;;4996065;28;20189;-72
2023/01/17 07:56:21;;;;;;;1999.90;999.90;;;2.20;15.10;;;;;;4995978;28;20256;-72
2023/01/17 07:58:47;;;;;;;1999.90;999.90;;;2.20;1.00;;;;;;4995859;28;20182;-72
2023/01/17 08:01:13;;;;;;;1999.90;999.90;;;2.10;1.00;;;;;;4995885;28;20256;-72
2023/01/17 08:03:39;;;;;;;1999.90;999.90;;;2.10;1.00;;;;;;4995633;28;20280;-72
2023/01/17 08:06:17;;;;;;;1999.90;999.90;;;2.10;1.00;;;;;;4996424;28;20659;-72
2023/01/17 08:08:43;;;;;;;1999.90;999.90;;;2.20;1.00;;;;;;4995940;28;20215;-72
2023/01/17 08:11:09;;;;;;;1999.90;999.90;;;2.10;1.00;;;;;;4996526;28;20177;-72
2023/01/17 08:13:34;;;;;;;1999.90;999.90;;;2.10;1.00;;;;;;4996115;28;20749;-72
2023/01/17 08:16:02;;;;;;;1999.90;999.90;;;2.20;1.00;;;;;;4996260;28;20173;-72
2023/01/17 08:18:28;;;;;;;1999.90;999.90;;;2.20;1.00;;;;;;4996718;28;20248;-72
2023/01/17 08:20:54;;;;;;;1999.90;999.90;;;2.20;1.00;;;;;;4996089;28;20240;-72
2023/01/17 08:23:20;;;;;;;1999.90;999.90;;;2.30;1.00;;;;;;4995982;28;20280;-72
2023/01/17 08:25:45;;;;;;;1999.90;999.90;;;2.30;1.00;;;;;;4995395;28;20177;-72
2023/01/17 08:28:11;;;;;;;1999.90;999.90;;;2.40;1.00;;;;;;4995228;28;20166;-72
2023/01/17 08:30:37;;;;;;;1999.90;999.90;;;2.50;99.90;;;;;;4995157;28;20198;-72
2023/01/17 08:33:03;;;;;;;1999.90;999.90;;;2.60;99.90;;;;;;4995234;28;20436;-72
2023/01/17 08:35:29;;;;;;;1999.90;999.90;;;2.60;99.90;;;;;;4995218;28;20404;-72
2023/01/17 08:37:55;;;;;;;1999.90;999.90;;;2.60;99.90;;;;;;4995105;28;20208;-71
2023/01/17 08:40:21;;;;;;;1999.90;999.90;;;2.70;99.90;;;;;;4995108;28;20412;-72
2023/01/17 08:42:58;;;;;;;1999.90;999.90;;;2.70;99.90;;;;;;4994988;28;20193;-71
2023/01/17 08:45:24;;;;;;;1999.90;999.90;;;2.70;59.60;;;;;;4995343;28;20273;-72
2023/01/17 08:47:49;;;;;;;1999.90;999.90;;;2.70;83.60;;;;;;4994517;28;20197;-72
2023/01/17 08:50:19;;;;;;;1999.90;999.90;;;2.70;88.10;;;;;;4995060;28;20190;-72
2023/01/17 08:52:46;;;;;;;1999.90;999.90;;;2.60;21.50;;;;;;4995356;28;20188;-72
2023/01/17 08:55:11;;;;;;;1999.90;999.90;;;2.60;1.00;;;;;;4994837;28;20194;-72
2023/01/17 08:57:37;;;;;;;1999.90;999.90;;;2.70;1.00;;;;;;4994782;28;20639;-71
2023/01/17 09:00:03;;;;;;;1999.90;999.90;;;2.70;1.00;;;;;;4994685;28;20257;-72
2023/01/17 09:02:28;;;;;;;1999.90;999.90;;;2.70;1.00;;;;;;4994855;28;20216;-72
2023/01/17 09:04:54;;;;;;;1999.90;999.90;;;2.50;1.00;;;;;;4994978;28;20431;-72
2023/01/17 09:07:20;;;;;;;1999.90;999.90;;;2.80;99.90;;;;;;4995307;28;20170;-72
2023/01/17 09:09:45;;;;;;;1999.90;999.90;;;2.80;99.90;;;;;;4995257;28;20166;-72
2023/01/17 09:12:11;;;;;;;1999.90;999.90;;;2.80;99.90;;;;;;4995066;28;20685;-71
2023/01/17 09:14:37;;;;;;;1999.90;999.90;;;2.90;99.90;;;;;;4995009;28;20819;-72
2023/01/17 09:17:04;;;;;;;1999.90;999.90;;;2.90;99.90;;;;;;4994543;28;20413;-73
2023/01/17 09:19:30;;;;;;;1999.90;999.90;;;2.90;99.90;;;;;;4994257;28;20166;-73
2023/01/17 09:21:55;;;;;;;1999.90;999.90;;;2.90;99.90;;;;;;4994373;28;20423;-72
2023/01/17 09:24:21;;;;;;;1999.90;999.90;;;2.90;99.90;;;;;;4993779;28;20221;-72
2023/01/17 09:26:47;;;;;;;1999.90;999.90;;;2.90;1.00;;;;;;4993964;28;20209;-72
2023/01/17 09:29:17;;;;;;;1999.90;999.90;;;2.90;43.80;;;;;;4993963;28;20172;-72
2023/01/17 09:31:45;;;;;;;1999.90;999.90;;;3.00;1.00;;;;;;4994169;28;20177;-72
2023/01/17 09:34:12;;;;;;;1999.90;999.90;;;3.00;99.90;;;;;;4994023;28;20329;-72
2023/01/17 09:36:37;;;;;;;1999.90;999.90;;;3.00;99.90;;;;;;4993981;28;20170;-72
2023/01/17 09:39:03;;;;;;;1999.90;999.90;;;3.00;99.90;;;;;;4994005;28;20186;-72
2023/01/17 09:41:33;;;;;;;1999.90;999.90;;;3.00;99.90;;;;;;4994327;28;20640;-72
2023/01/17 09:44:11;;;;;;;1999.90;999.90;;;3.00;99.90;;;;;;4994074;28;20209;-72
2023/01/17 09:46:41;;;;;;;1999.90;999.90;;;3.10;99.90;;;;;;4994328;28;20166;-72
2023/01/17 09:49:19;;;;;;;1999.90;999.90;;;3.20;99.90;;;;;;4994260;28;20580;-72
2023/01/17 09:51:45;;;;;;;1999.90;999.90;;;3.20;99.90;;;;;;4992244;28;20413;-72
2023/01/17 09:54:26;;;;;;;1999.90;999.90;;;3.30;99.90;;;;;;4993898;28;20693;-70
2023/01/17 09:57:18;;;;;;;1999.90;999.90;;;3.30;99.90;;;;;;4995891;28;20229;-71
2023/01/17 09:59:53;;;;;;;1999.90;999.90;;;3.30;99.90;;;;;;4995484;28;20178;-72
2023/01/17 10:02:27;;;;;;;1999.90;999.90;;;3.30;99.90;;;;;;4993850;28;20173;-71
2023/01/17 10:05:17;;;;;;;1999.90;999.90;;;3.40;99.90;;;;;;4994087;28;20181;-72
2023/01/17 10:08:17;;;;;;;1999.90;999.90;;;3.50;99.90;;;;;;4993398;28;20162;-72
2023/01/17 10:11:13;;;;;;;1999.90;999.90;;;3.50;99.90;;;;;;4993326;28;20166;-72
2023/01/17 10:13:54;;;;;;;1999.90;999.90;;;3.60;99.90;;;;;;4993689;28;20421;-73
2023/01/17 10:16:44;;;;;;;1999.90;999.90;;;3.60;99.90;;;;;;4993620;28;20251;-73
2023/01/17 10:19:28;;;;;;;1999.90;999.90;;;3.70;99.90;;;;;;4993676;28;20405;-73
2023/01/17 10:22:10;;;;;;;1999.90;999.90;;;3.70;99.90;;;;;;4993299;28;20635;-73
2023/01/17 10:25:00;;;;;;;1999.90;999.90;;;3.70;99.90;;;;;;4993015;28;20515;-73
2023/01/17 10:27:36;;;;;;;1999.90;999.90;;;3.80;99.90;;;;;;4992906;28;20404;-73
2023/01/17 10:30:13;;;;;;;1999.90;999.90;;;3.80;99.90;;;;;;4992856;28;20415;-73
2023/01/17 10:32:45;;;;;;;1999.90;999.90;;;3.90;99.90;;;;;;4990838;28;21141;-73
2023/01/17 10:35:20;;;;;;;1999.90;999.90;;;4.00;99.90;;;;;;4992952;28;20428;-73
2023/01/17 10:37:47;;;;;;;1999.90;999.90;;;4.10;99.90;;;;;;4992596;28;20405;-71
2023/01/17 10:40:23;;;;;;;1999.90;999.90;;;4.20;99.90;;;;;;4992561;28;20793;-73
2023/01/17 10:43:14;;;;;;;1999.90;999.90;;;4.30;99.90;;;;;;4992122;28;20484;-73
2023/01/17 10:45:43;;;;;;;1999.90;999.90;;;4.40;99.90;;;;;;4992065;28;20393;-73
2023/01/17 10:48:14;;;;;;;1999.90;999.90;;;4.50;99.90;;;;;;4992423;28;20441;-73
2023/01/17 10:50:57;;;;;;;1999.90;999.90;;;4.60;99.90;;;;;;4992366;28;20676;-73
2023/01/17 10:53:42;;;;;;;1999.90;999.90;;;4.70;99.90;;;;;;4994109;28;20439;-73
2023/01/17 10:56:10;;;;;;;1999.90;999.90;;;4.90;99.90;;;;;;4993420;28;20413;-73
2023/01/17 10:58:35;;;;;;;1999.90;999.90;;;5.00;99.90;;;;;;4994651;28;20425;-70
2023/01/17 11:01:18;;;;;;;1999.90;999.90;;;5.10;99.90;;;;;;4995881;28;20767;-69
2023/01/17 11:03:49;;;;;;;1999.90;999.90;;;5.10;99.90;;;;;;4993512;28;20201;-69
2023/01/17 11:06:24;;;;;;;1999.90;999.90;;;5.20;99.90;;;;;;4993771;28;20409;-70
2023/01/17 11:08:58;;;;;;;1999.90;999.90;;;5.30;99.90;;;;;;4994138;28;20921;-71
2023/01/17 11:11:29;;;;;;;1999.90;999.90;;;5.50;99.90;;;;;;4998150;28;20408;-68
2023/01/17 11:14:02;;;;;;;1999.90;999.90;;;5.50;99.90;;;;;;4998769;28;20432;-68
2023/01/17 11:16:30;;;;;;;1999.90;999.90;;;5.50;99.90;;;;;;4998375;28;20949;-69
2023/01/17 11:19:04;;;;;;;1999.90;999.90;;;5.60;99.90;;;;;;4998415;28;20427;-69
2023/01/17 11:21:31;;;;;;;1999.90;999.90;;;5.60;99.90;;;;;;4998687;28;20442;-69
2023/01/17 11:24:07;;;;;;;1999.90;999.90;;;5.60;99.90;;;;;;4998306;28;20463;-70
2023/01/17 11:26:35;;;;;;;1999.90;999.90;;;5.80;99.90;;;;;;4999155;28;20409;-69
2023/01/17 11:29:35;;;;;;;1999.90;999.90;;;6.00;99.90;;;;;;4999221;28;20475;-71
2023/01/17 11:32:26;;;;;;;1999.90;999.90;;;6.20;99.90;;;;;;5000686;28;20507;-68
2023/01/17 11:35:15;;;;;;;1999.90;999.90;;;6.70;99.90;;;;;;4999719;28;20429;-69
2023/01/17 11:38:03;;;;;;;1999.90;999.90;;;7.40;99.90;;;;;;4998940;28;20891;-69
2023/01/17 11:40:30;;;;;;;1999.90;999.90;;;8.20;99.90;;;;;;4999040;28;20965;-69
2023/01/17 11:43:22;;;;;;;1999.90;999.90;;;8.90;99.90;;;;;;4999050;28;20548;-69
2023/01/17 11:46:16;;;;;;;1999.90;999.90;;;9.80;99.90;;;;;;4996108;28;20430;-69
2023/01/17 11:48:56;;;;;;;1999.90;999.90;;;10.50;99.90;;;;;;4998077;28;20454;-69
2023/01/17 11:51:29;;;;;;;1999.90;999.90;;;11.10;99.90;;;;;;4998206;28;20399;-69
2023/01/17 11:54:16;;;;;;;1999.90;999.90;;;11.60;99.90;;;;;;4997884;28;20435;-69
2023/01/17 11:56:45;;;;;;;1999.90;999.90;;;11.90;99.90;;;;;;4998125;28;20404;-69
2023/01/17 11:59:33;;;;;;;1999.90;999.90;;;11.90;99.90;;;;;;4997728;28;20929;-69
2023/01/17 12:02:17;;;;;;;1999.90;999.90;;;12.00;99.90;;;;;;4998481;28;20861;-69
2023/01/17 12:04:48;;;;;;;1999.90;999.90;;;11.90;99.90;;;;;;4997957;28;20464;-69
2023/01/17 12:07:23;;;;;;;1999.90;999.90;;;11.80;99.90;;;;;;4997562;28;20451;-69
2023/01/17 12:09:54;;;;;;;1999.90;999.90;;;12.10;99.90;;;;;;4997982;28;20790;-69
2023/01/17 12:15:32;;;;;;;1999.90;999.90;;;12.40;96.60;;;;;;4997907;28;20475;-69
2023/01/17 12:18:07;;;;;;;1999.90;999.90;;;12.10;96.60;;;;;;4998016;28;20416;-69
2023/01/17 12:20:54;;;;;;;1999.90;999.90;;;11.90;98.00;;;;;;4998073;28;20808;-69
2023/01/17 12:23:23;;;;;;;1999.90;999.90;;;11.90;99.40;;;;;;4995690;28;20474;-69
2023/01/17 12:26:23;;;;;;;1999.90;999.90;;;12.00;98.60;;;;;;4994804;28;20418;-69
2023/01/17 12:29:24;;;;;;;1999.90;999.90;;;12.30;96.60;;;;;;4994334;28;20410;-69
2023/01/17 12:32:08;;;;;;;1999.90;999.90;;;12.60;98.40;;;;;;4973004;28;20888;-70
2023/01/17 12:34:42;;;;;;;1999.90;999.90;;;13.40;97.20;;;;;;4992845;28;20931;-70
2023/01/17 12:37:39;;;;;;;1999.90;999.90;;;13.90;92.60;;;;;;4994350;28;20414;-70
2023/01/17 12:40:26;;;;;;;1999.90;999.90;;;14.40;91.30;;;;;;4991013;28;20450;-70
2023/01/17 12:43:00;;;;;;;1999.90;999.90;;;15.40;88.10;;;;;;4995305;28;20583;-69
2023/01/17 12:45:41;;;;;;;1999.90;999.90;;;15.60;71.20;;;;;;4994823;28;20471;-69
2023/01/17 12:48:17;;;;;;;1999.90;999.90;;;15.90;58.30;;;;;;4995104;28;20398;-69
2023/01/17 12:50:56;;;;;;;1999.90;999.90;;;16.10;55.90;;;;;;4995143;28;20414;-69
2023/01/17 12:53:39;;;;;;;1999.90;999.90;;;16.00;45.40;;;;;;4994887;28;20427;-69
2023/01/17 12:56:10;;;;;;;1999.90;999.90;;;16.00;43.40;;;;;;4994892;28;20420;-69
2023/01/17 12:58:41;;;;;;;1999.90;999.90;;;16.20;40.80;;;;;;4994535;28;20564;-69
2023/01/17 13:01:24;;;;;;;1999.90;999.90;;;16.70;41.80;;;;;;4995187;28;20448;-69
2023/01/17 13:04:02;;;;;;;1999.90;999.90;;;17.00;37.50;;;;;;4995260;28;20461;-69
2023/01/17 13:06:34;;;;;;;1999.90;999.90;;;17.10;34.80;;;;;;4994736;28;21095;-69
2023/01/17 13:09:02;;;;;;;1999.90;999.90;;;17.00;28.60;;;;;;4995136;28;20416;-69
2023/01/17 13:11:42;;;;;;;1999.90;999.90;;;16.10;28.20;;;;;;4995684;28;20551;-69
2023/01/17 13:14:09;;;;;;;1999.90;999.90;;;15.70;28.20;;;;;;4995554;28;20505;-68
2023/01/17 13:16:37;;;;;;;1999.90;999.90;;;15.60;31.50;;;;;;4995452;28;20932;-69
2023/01/17 13:19:16;;;;;;;1999.90;999.90;;;15.60;30.60;;;;;;4994577;28;20418;-69
2023/01/17 13:21:42;;;;;;;1999.90;999.90;;;15.90;33.90;;;;;;4993840;28;20826;-69
2023/01/17 13:24:25;;;;;;;1999.90;999.90;;;15.90;28.90;;;;;;4994674;28;20561;-68
2023/01/17 13:26:54;;;;;;;1999.90;999.90;;;15.50;29.50;;;;;;4997052;28;20488;-69
2023/01/17 13:29:26;;;;;;;1999.90;999.90;;;15.30;30.20;;;;;;4996095;28;20414;-69
2023/01/17 13:32:06;;;;;;;1999.90;999.90;;;15.10;30.70;;;;;;4997131;28;20428;-69
2023/01/17 13:35:02;;;;;;;1999.90;999.90;;;15.30;31.20;;;;;;4995772;28;20980;-69
2023/01/17 13:37:55;;;;;;;1999.90;999.90;;;15.60;29.40;;;;;;4995323;28;20410;-69
2023/01/17 13:40:50;;;;;;;1999.90;999.90;;;16.20;24.50;;;;;;4995581;28;20466;-69
2023/01/17 13:43:22;;;;;;;1999.90;999.90;;;14.80;38.30;;;;;;4995280;28;20541;-69
2023/01/17 13:45:56;;;;;;;1999.90;999.90;;;14.60;26.00;;;;;;4996802;28;20507;-69
2023/01/17 13:48:24;;;;;;;1999.90;999.90;;;13.70;28.40;;;;;;4995748;28;20410;-69
2023/01/17 13:50:58;;;;;;;1999.90;999.90;;;13.40;33.30;;;;;;4995050;28;20422;-69
2023/01/17 13:53:32;;;;;;;1999.90;999.90;;;13.40;32.40;;;;;;4996010;28;20476;-69